createdAt,value
2023-08-05T00:01:12.762Z,161394.81
2023-08-05T00:03:42.374Z,161390.75
2023-08-05T00:06:11.418Z,161405.50
2023-08-05T00:08:39.080Z,161397.47
2023-08-05T00:11:06.481Z,161409.56
2023-08-05T00:13:35.916Z,161416.28
2023-08-05T00:16:03.894Z,161416.28
2023-08-05T00:18:31.593Z,161410.88
2023-08-05T00:20:58.831Z,161394.81
2023-08-05T00:23:26.791Z,161361.25
2023-08-05T00:25:54.073Z,161367.97
2023-08-05T00:28:21.755Z,161367.97
2023-08-05T00:30:49.156Z,161343.78
2023-08-05T00:33:16.783Z,161331.75
2023-08-05T00:35:44.141Z,161339.81
2023-08-05T00:38:12.067Z,161337.09
2023-08-05T00:40:39.494Z,161338.47
2023-08-05T00:43:07.219Z,161335.75
2023-08-05T00:45:34.642Z,161335.75
2023-08-05T00:48:02.915Z,161318.34
2023-08-05T00:50:30.940Z,161317.00
2023-08-05T00:52:59.179Z,161296.88
2023-08-05T00:55:26.379Z,161280.75
2023-08-05T00:57:54.050Z,161286.13
2023-08-05T01:00:21.632Z,161252.66
2023-08-05T01:02:49.423Z,161266.00
2023-08-05T01:05:17.184Z,161244.56
2023-08-05T01:07:45.619Z,161225.78
2023-08-05T01:10:13.226Z,161215.03
2023-08-05T01:12:43.254Z,161209.66
2023-08-05T01:15:10.871Z,161211.03
2023-08-05T01:17:39.250Z,161197.63
2023-08-05T01:20:09.397Z,161196.28
2023-08-05T01:22:52.987Z,161189.56
2023-08-05T01:25:32.950Z,161193.56
2023-08-05T01:28:02.592Z,161186.88
2023-08-05T01:30:31.421Z,161192.25
2023-08-05T01:33:01.179Z,161189.56
2023-08-05T01:35:28.888Z,161188.19
2023-08-05T01:37:56.750Z,161188.19
2023-08-05T01:40:29.535Z,161176.16
2023-08-05T01:42:58.530Z,161186.88
2023-08-05T01:45:26.259Z,161168.13
2023-08-05T01:47:54.309Z,161145.28
2023-08-05T01:50:21.690Z,161145.28
2023-08-05T01:52:49.350Z,161143.97
2023-08-05T01:55:16.740Z,161138.59
2023-08-05T01:57:44.622Z,161122.53
2023-08-05T02:00:12.333Z,161119.84
2023-08-05T02:02:43.267Z,161106.44
2023-08-05T02:05:11.132Z,161107.78
2023-08-05T02:07:39.152Z,161095.69
2023-08-05T02:10:06.977Z,161105.13
2023-08-05T02:12:34.697Z,161123.84
2023-08-05T02:15:02.207Z,161107.78
2023-08-05T02:17:30.083Z,161134.59
2023-08-05T02:19:57.526Z,161125.22
2023-08-05T02:22:26.036Z,161129.22
2023-08-05T02:24:53.485Z,161129.22
2023-08-05T02:27:21.292Z,161131.88
2023-08-05T02:29:48.514Z,161114.47
2023-08-05T02:32:18.350Z,161105.13
2023-08-05T02:34:45.727Z,161110.44
2023-08-05T02:37:13.591Z,161105.13
2023-08-05T02:39:42.246Z,161094.38
2023-08-05T02:42:10.108Z,161090.38
2023-08-05T02:44:37.737Z,161075.59
2023-08-05T02:47:05.655Z,161076.97
2023-08-05T02:49:33.851Z,161054.13
2023-08-05T02:52:01.544Z,161051.47
2023-08-05T02:54:29.164Z,161051.47
2023-08-05T02:56:56.818Z,161038.06
2023-08-05T02:59:24.196Z,161032.69
2023-08-05T03:01:52.004Z,161034.09
2023-08-05T03:04:19.953Z,161019.34
2023-08-05T03:06:48.567Z,161030.03
2023-08-05T03:09:16.506Z,161020.69
2023-08-05T03:11:44.218Z,161028.72
2023-08-05T03:14:12.588Z,161031.38
2023-08-05T03:16:41.311Z,161007.28
2023-08-05T03:19:16.055Z,161008.59
2023-08-05T03:21:44.315Z,161030.03
2023-08-05T03:24:12.316Z,161022.00
2023-08-05T03:26:43.151Z,160985.81
2023-08-05T03:29:13.141Z,161005.94
2023-08-05T03:31:40.855Z,161001.91
2023-08-05T03:34:09.079Z,161016.63
2023-08-05T03:36:37.810Z,161015.31
2023-08-05T03:39:06.494Z,161031.38
2023-08-05T03:41:35.402Z,161040.78
2023-08-05T03:44:03.241Z,161054.13
2023-08-05T03:46:30.987Z,161070.25
2023-08-05T03:48:58.478Z,161075.59
2023-08-05T03:51:26.307Z,161093.03
2023-08-05T03:53:53.643Z,161103.72
2023-08-05T03:56:23.487Z,161115.81
2023-08-05T03:58:53.111Z,161137.25
2023-08-05T04:01:23.388Z,161145.28
2023-08-05T04:03:51.603Z,161161.41
2023-08-05T04:06:21.925Z,161189.56
2023-08-05T04:08:52.261Z,161198.94
2023-08-05T04:11:20.090Z,161212.34
2023-08-05T04:13:47.383Z,161221.72
2023-08-05T04:16:17.916Z,161233.81
2023-08-05T04:18:47.723Z,161252.66
2023-08-05T04:21:16.315Z,161259.31
2023-08-05T04:23:43.742Z,161286.13
2023-08-05T04:26:11.542Z,161292.84
2023-08-05T04:28:38.939Z,161321.00
2023-08-05T04:31:06.775Z,161329.03
2023-08-05T04:33:34.208Z,161365.25
2023-08-05T04:36:01.974Z,161396.13
2023-08-05T04:38:29.390Z,161410.88
2023-08-05T04:40:57.120Z,161443.06
2023-08-05T04:43:24.435Z,161480.66
2023-08-05T04:45:52.254Z,161529.03
2023-08-05T04:48:19.700Z,161566.56
2023-08-05T04:50:47.452Z,161567.91
2023-08-05T04:53:16.602Z,161604.13
2023-08-05T04:55:44.299Z,161617.56
2023-08-05T04:58:12.557Z,161582.66
2023-08-05T05:00:40.519Z,161588.03
2023-08-05T05:03:09.058Z,161593.41
2023-08-05T05:05:37.181Z,161573.28
2023-08-05T05:08:04.660Z,161571.94
2023-08-05T05:10:32.423Z,161573.28
2023-08-05T05:13:00.070Z,161580.00
2023-08-05T05:15:27.856Z,161580.00
2023-08-05T05:17:55.164Z,161586.72
2023-08-05T05:20:22.854Z,161584.00
2023-08-05T05:22:50.746Z,161593.41
2023-08-05T05:25:18.405Z,161594.75
2023-08-05T05:27:45.789Z,161594.75
2023-08-05T05:30:13.523Z,161580.00
2023-08-05T05:32:40.877Z,161584.00
2023-08-05T05:35:09.026Z,161608.19
2023-08-05T05:37:36.394Z,161602.78
2023-08-05T05:40:04.602Z,161610.84
2023-08-05T05:42:32.328Z,161604.13
2023-08-05T05:45:01.662Z,161622.94
2023-08-05T05:47:29.592Z,161661.84
2023-08-05T05:49:57.358Z,161695.41
2023-08-05T05:52:24.780Z,161747.78
2023-08-05T05:54:52.469Z,161829.69
2023-08-05T05:57:20.907Z,161864.63
2023-08-05T05:59:48.795Z,161887.44
2023-08-05T06:02:16.132Z,161891.47
2023-08-05T06:04:45.768Z,161896.81
2023-08-05T06:07:13.258Z,161900.88
2023-08-05T06:09:42.420Z,161923.69
2023-08-05T06:12:11.983Z,161922.34
2023-08-05T06:14:39.808Z,161941.16
2023-08-05T06:17:07.761Z,161949.22
2023-08-05T06:19:35.445Z,161961.38
2023-08-05T06:22:02.913Z,161973.44
2023-08-05T06:24:30.535Z,161978.81
2023-08-05T06:26:57.907Z,161990.91
2023-08-05T06:29:25.598Z,161980.16
2023-08-05T06:31:54.869Z,161973.44
2023-08-05T06:34:23.517Z,161937.13
2023-08-05T06:36:50.951Z,161912.97
2023-08-05T06:39:18.455Z,161891.47
2023-08-05T06:41:45.762Z,161890.09
2023-08-05T06:44:13.466Z,161898.19
2023-08-05T06:46:40.921Z,161906.25
2023-08-05T06:49:10.788Z,161910.25
2023-08-05T06:51:38.820Z,161891.47
2023-08-05T06:54:06.514Z,161884.75
2023-08-05T06:56:33.850Z,161902.19
2023-08-05T06:59:01.639Z,161922.34
2023-08-05T07:01:29.242Z,161930.41
2023-08-05T07:03:57.027Z,161923.69
2023-08-05T07:06:24.476Z,161926.41
2023-08-05T07:08:52.917Z,161902.19
2023-08-05T07:11:20.229Z,161880.72
2023-08-05T07:13:49.730Z,161867.28
2023-08-05T07:16:18.678Z,161870.00
2023-08-05T07:18:46.308Z,161868.63
2023-08-05T07:21:14.079Z,161852.53
2023-08-05T07:23:42.010Z,161753.16
2023-08-05T07:26:09.401Z,161758.56
2023-08-05T07:28:37.272Z,161766.59
2023-08-05T07:31:08.444Z,161773.31
2023-08-05T07:33:36.087Z,161771.97
2023-08-05T07:36:10.981Z,161755.88
2023-08-05T07:38:44.971Z,161762.53
2023-08-05T07:41:13.937Z,161741.06
2023-08-05T07:43:43.507Z,161737.06
2023-08-05T07:46:14.704Z,161750.50
2023-08-05T07:48:43.669Z,161751.84
2023-08-05T07:51:11.052Z,161773.31
2023-08-05T07:53:38.797Z,161767.94
2023-08-05T07:56:13.138Z,161761.22
2023-08-05T07:58:43.800Z,161755.88
2023-08-05T08:01:13.658Z,161761.22
2023-08-05T08:03:44.542Z,161753.16
2023-08-05T08:06:15.855Z,161771.97
2023-08-05T08:08:44.355Z,161784.06
2023-08-05T08:11:12.190Z,161790.75
2023-08-05T08:13:40.499Z,161792.13
2023-08-05T08:16:08.059Z,161778.69
2023-08-05T08:18:35.783Z,161766.59
2023-08-05T08:21:05.259Z,161741.06
2023-08-05T08:23:33.092Z,161733.03
2023-08-05T08:26:01.010Z,161729.03
2023-08-05T08:28:29.048Z,161719.53
2023-08-05T08:30:57.787Z,161724.91
2023-08-05T08:33:27.836Z,161692.75
2023-08-05T08:35:55.465Z,161687.34
2023-08-05T08:38:26.826Z,161664.53
2023-08-05T08:40:58.919Z,161647.06
2023-08-05T08:43:28.301Z,161643.06
2023-08-05T08:45:56.668Z,161636.38
2023-08-05T08:48:25.333Z,161636.38
2023-08-05T08:50:54.183Z,161628.31
2023-08-05T08:53:23.136Z,161629.66
2023-08-05T08:55:50.596Z,161612.19
2023-08-05T08:58:18.247Z,161584.00
2023-08-05T09:00:46.554Z,161541.06
2023-08-05T09:03:14.739Z,161512.88
2023-08-05T09:05:46.700Z,161511.53
2023-08-05T09:08:14.796Z,161495.47
2023-08-05T09:10:44.993Z,161482.00
2023-08-05T09:13:13.179Z,161482.00
2023-08-05T09:15:40.827Z,161475.28
2023-08-05T09:18:09.914Z,161475.28
2023-08-05T09:20:38.727Z,161441.72
2023-08-05T09:23:11.998Z,161431.03
2023-08-05T09:25:40.176Z,161416.28
2023-08-05T09:28:08.219Z,161402.84
2023-08-05T09:30:36.480Z,161371.97
2023-08-05T09:33:04.676Z,161329.03
2023-08-05T09:35:32.340Z,161303.59
2023-08-05T09:38:02.115Z,161321.00
2023-08-05T09:40:33.497Z,161304.94
2023-08-05T09:43:03.949Z,161287.47
2023-08-05T09:45:35.046Z,161272.72
2023-08-05T09:48:10.258Z,161276.78
2023-08-05T09:50:39.027Z,161267.41
2023-08-05T09:53:10.692Z,161267.41
2023-08-05T09:55:39.726Z,161243.22
2023-08-05T09:58:11.353Z,161235.13
2023-08-05T10:00:42.212Z,161213.69
2023-08-05T10:03:15.484Z,161206.97
2023-08-05T10:05:45.943Z,161212.34
2023-08-05T10:08:20.983Z,161201.59
2023-08-05T10:10:48.602Z,161200.28
2023-08-05T10:13:19.213Z,161188.19
2023-08-05T10:15:52.224Z,161168.13
2023-08-05T10:18:20.312Z,161148.00
2023-08-05T10:20:54.919Z,161156.03
2023-08-05T10:23:26.411Z,161150.66
2023-08-05T10:26:00.640Z,161156.03
2023-08-05T10:28:40.761Z,161172.13
2023-08-05T10:31:24.712Z,161241.91
2023-08-05T10:34:18.124Z,161317.00
2023-08-05T10:36:49.773Z,161389.44
2023-08-05T10:39:42.206Z,161455.16
2023-08-05T10:42:31.394Z,161480.66
2023-08-05T10:45:00.162Z,161496.78
2023-08-05T10:47:28.322Z,161518.25
2023-08-05T10:50:00.963Z,161516.94
2023-08-05T10:52:29.681Z,161486.00
2023-08-05T10:54:58.571Z,161469.91
2023-08-05T10:57:44.127Z,161469.91
2023-08-05T11:00:21.613Z,161457.81
2023-08-05T11:02:50.938Z,161465.91
2023-08-05T11:05:19.184Z,161449.78
2023-08-05T11:07:47.298Z,161448.44
2023-08-05T11:10:15.093Z,161471.22
2023-08-05T11:12:42.432Z,161464.53
2023-08-05T11:15:10.846Z,161496.78
2023-08-05T11:17:57.326Z,161515.59
2023-08-05T11:20:32.776Z,161518.25
2023-08-05T11:23:00.925Z,161569.25
2023-08-05T11:25:29.909Z,161608.19
2023-08-05T11:27:57.393Z,161651.13
2023-08-05T11:30:24.849Z,161691.34
2023-08-05T11:32:59.709Z,161720.94
2023-08-05T11:35:27.956Z,161734.41
2023-08-05T11:37:55.807Z,161741.06
2023-08-05T11:40:23.751Z,161755.88
2023-08-05T11:42:51.702Z,161754.50
2023-08-05T11:45:19.909Z,161706.16
2023-08-05T11:47:47.365Z,161733.03
2023-08-05T11:50:15.534Z,161765.25
2023-08-05T11:52:42.922Z,161738.41
2023-08-05T11:55:11.199Z,161758.56
2023-08-05T11:57:38.931Z,161765.25
2023-08-05T12:00:10.514Z,161824.31
2023-08-05T12:02:39.266Z,161840.41
2023-08-05T12:05:11.626Z,161887.44
2023-08-05T12:07:43.536Z,161902.19
2023-08-05T12:10:17.347Z,161908.91
2023-08-05T12:12:46.271Z,161904.91
2023-08-05T12:15:29.301Z,161898.19
2023-08-05T12:20:29.007Z,161860.56
2023-08-05T12:22:57.994Z,161891.47
2023-08-05T12:25:27.299Z,161853.84
2023-08-05T12:27:55.055Z,161853.84
2023-08-05T12:30:23.221Z,161835.09
2023-08-05T12:32:51.109Z,161876.72
2023-08-05T12:35:18.937Z,161878.06
2023-08-05T12:37:46.381Z,161918.31
2023-08-05T12:40:14.762Z,161965.38
2023-08-05T12:42:43.157Z,161961.38
2023-08-05T12:45:11.136Z,161964.03
2023-08-05T12:47:40.205Z,161970.75
2023-08-05T12:50:08.871Z,161974.75
2023-08-05T12:52:36.554Z,161992.25
2023-08-05T12:55:04.475Z,161992.25
2023-08-05T12:57:33.609Z,161973.44
2023-08-05T13:00:02.539Z,161980.16
2023-08-05T13:02:30.391Z,161943.84
2023-08-05T13:04:58.339Z,161941.16
2023-08-05T13:07:26.035Z,161977.47
2023-08-05T13:09:53.839Z,161978.81
2023-08-05T13:12:21.141Z,161993.59
2023-08-05T13:14:48.860Z,161993.59
2023-08-05T13:17:16.185Z,161973.44
2023-08-05T13:19:44.704Z,161921.03
2023-08-05T13:22:12.082Z,161947.88
2023-08-05T13:24:39.946Z,161890.09
2023-08-05T13:27:07.377Z,161859.22
2023-08-05T13:29:36.160Z,161859.22
2023-08-05T13:32:03.490Z,161859.22
2023-08-05T13:34:31.154Z,161840.41
2023-08-05T13:36:58.681Z,161827.03
2023-08-05T13:39:26.723Z,161814.94
2023-08-05T13:41:58.941Z,161805.56
2023-08-05T13:44:27.972Z,161818.94
2023-08-05T13:46:55.831Z,161797.47
2023-08-05T13:49:23.473Z,161796.13
2023-08-05T13:51:52.832Z,161800.16
2023-08-05T13:54:20.763Z,161802.84
2023-08-05T13:56:48.243Z,161796.13
2023-08-05T13:59:16.019Z,161794.78
2023-08-05T14:01:46.486Z,161805.56
2023-08-05T14:04:14.072Z,161808.22
2023-08-05T14:06:41.550Z,161814.94
2023-08-05T14:09:09.523Z,161814.94
2023-08-05T14:11:37.458Z,161805.56
2023-08-05T14:14:05.420Z,161798.84
2023-08-05T14:16:33.007Z,161805.56
2023-08-05T14:19:01.596Z,161813.59
2023-08-05T14:21:29.175Z,161802.84
2023-08-05T14:23:57.103Z,161802.84
2023-08-05T14:26:24.853Z,161821.66
2023-08-05T14:28:52.662Z,161827.03
2023-08-05T14:31:20.099Z,161825.66
2023-08-05T14:33:47.876Z,161837.75
2023-08-05T14:36:15.617Z,161833.75
2023-08-05T14:38:43.391Z,161824.31
2023-08-05T14:41:17.146Z,161816.28
2023-08-05T14:43:45.066Z,161812.28
2023-08-05T14:46:12.842Z,161820.31
2023-08-05T14:48:40.804Z,161808.22
2023-08-05T14:51:08.300Z,161812.28
2023-08-05T14:53:35.880Z,161849.84
2023-08-05T14:56:03.382Z,161844.47
2023-08-05T14:58:31.168Z,161843.13
2023-08-05T15:01:04.947Z,161847.13
2023-08-05T15:03:32.895Z,161845.81
2023-08-05T15:06:00.391Z,161844.47
2023-08-05T15:08:28.093Z,161855.22
2023-08-05T15:11:01.894Z,161853.84
2023-08-05T15:13:29.864Z,161878.06
2023-08-05T15:15:57.269Z,161882.06
2023-08-05T15:18:25.052Z,161853.84
2023-08-05T15:20:53.005Z,161816.28
2023-08-05T15:25:51.808Z,161824.31
2023-08-05T15:28:19.879Z,161836.41
2023-08-05T15:30:47.648Z,161812.28
2023-08-05T15:33:16.689Z,161797.47
2023-08-05T15:35:45.101Z,161784.06
2023-08-05T15:38:12.735Z,161814.94
2023-08-05T15:40:40.114Z,161804.19
2023-08-05T15:43:07.860Z,161789.41
2023-08-05T15:45:35.192Z,161789.41
2023-08-05T15:48:02.887Z,161773.31
2023-08-05T15:50:30.299Z,161771.97
2023-08-05T15:52:57.883Z,161793.47
2023-08-05T15:55:25.714Z,161781.34
2023-08-05T15:57:53.710Z,161780.03
2023-08-05T16:00:21.007Z,161762.53
2023-08-05T16:02:50.256Z,161753.16
2023-08-05T16:05:17.839Z,161735.75
2023-08-05T16:07:45.679Z,161730.34
2023-08-05T16:10:13.152Z,161734.41
2023-08-05T16:12:41.150Z,161690.03
2023-08-05T16:15:09.405Z,161698.06
2023-08-05T16:17:37.094Z,161694.06
2023-08-05T16:20:04.894Z,161710.16
2023-08-05T16:22:32.603Z,161715.53
2023-08-05T16:24:59.922Z,161712.81
2023-08-05T16:27:27.658Z,161679.31
2023-08-05T16:29:55.085Z,161659.16
2023-08-05T16:32:23.202Z,161676.59
2023-08-05T16:34:50.460Z,161667.22
2023-08-05T16:37:18.214Z,161663.16
2023-08-05T16:39:45.643Z,161655.13
2023-08-05T16:42:13.310Z,161652.44
2023-08-05T16:44:40.766Z,161663.16
2023-08-05T16:47:08.860Z,161641.69
2023-08-05T16:49:36.285Z,161637.69
2023-08-05T16:52:04.267Z,161636.38
2023-08-05T16:54:31.414Z,161625.59
2023-08-05T16:56:59.122Z,161645.75
2023-08-05T16:59:26.349Z,161628.31
2023-08-05T17:01:54.172Z,161628.31
2023-08-05T17:04:21.898Z,161629.66
2023-08-05T17:06:49.679Z,161609.50
2023-08-05T17:09:18.272Z,161608.19
2023-08-05T17:11:46.003Z,161597.41
2023-08-05T17:14:13.460Z,161598.75
2023-08-05T17:16:41.130Z,161586.72
2023-08-05T17:19:08.650Z,161573.28
2023-08-05T17:21:36.384Z,161573.28
2023-08-05T17:24:04.231Z,161571.94
2023-08-05T17:26:31.999Z,161563.84
2023-08-05T17:28:59.685Z,161555.81
2023-08-05T17:31:27.462Z,161542.38
2023-08-05T17:33:54.757Z,161541.06
2023-08-05T17:36:23.023Z,161550.47
2023-08-05T17:38:50.558Z,161523.63
2023-08-05T17:41:18.026Z,161522.31
2023-08-05T17:43:45.412Z,161515.59
2023-08-05T17:46:13.537Z,161507.50
2023-08-05T17:48:40.900Z,161511.53
2023-08-05T17:51:08.627Z,161502.16
2023-08-05T17:53:36.024Z,161512.88
2023-08-05T17:56:04.155Z,161512.88
2023-08-05T17:58:31.519Z,161491.41
2023-08-05T18:00:59.261Z,161484.66
2023-08-05T18:03:26.651Z,161467.25
2023-08-05T18:06:04.435Z,161476.59
2023-08-05T18:08:39.261Z,161456.47
2023-08-05T18:11:07.020Z,161465.91
2023-08-05T18:13:35.094Z,161463.19
2023-08-05T18:16:03.676Z,161452.47
2023-08-05T18:18:31.011Z,161453.81
2023-08-05T18:20:58.711Z,161451.16
2023-08-05T18:23:26.021Z,161465.91
2023-08-05T18:25:55.217Z,161449.78
2023-08-05T18:28:22.727Z,161455.16
2023-08-05T18:30:54.149Z,161449.78
2023-08-05T18:33:22.459Z,161432.34
2023-08-05T18:35:50.389Z,161453.81
2023-08-05T18:38:17.950Z,161453.81
2023-08-05T18:40:45.631Z,161451.16
2023-08-05T18:43:13.084Z,161449.78
2023-08-05T18:45:41.586Z,161436.34
2023-08-05T18:48:08.990Z,161439.06
2023-08-05T18:50:37.271Z,161432.34
2023-08-05T18:53:04.707Z,161444.44
2023-08-05T18:55:32.341Z,161428.31
2023-08-05T18:57:59.640Z,161426.97
2023-08-05T19:00:27.205Z,161428.31
2023-08-05T19:02:54.619Z,161443.06
2023-08-05T19:05:22.745Z,161426.97
2023-08-05T19:07:50.070Z,161432.34
2023-08-05T19:10:17.999Z,161428.31
2023-08-05T19:12:46.621Z,161440.41
2023-08-05T19:15:14.300Z,161428.31
2023-08-05T19:17:41.575Z,161412.22
2023-08-05T19:20:09.769Z,161440.41
2023-08-05T19:22:37.138Z,161429.69
2023-08-05T19:25:05.436Z,161436.34
2023-08-05T19:27:44.139Z,161444.44
2023-08-05T19:30:22.270Z,161445.78
2023-08-05T19:32:50.905Z,161447.09
2023-08-05T19:35:19.765Z,161443.06
2023-08-05T19:37:47.042Z,161453.81
2023-08-05T19:40:14.847Z,161456.47
2023-08-05T19:42:42.492Z,161433.69
2023-08-05T19:45:10.319Z,161435.00
2023-08-05T19:47:42.428Z,161429.69
2023-08-05T19:50:10.605Z,161426.97
2023-08-05T19:52:39.377Z,161397.47
2023-08-05T19:55:07.442Z,161414.88
2023-08-05T19:57:35.013Z,161413.56
2023-08-05T20:00:04.693Z,161410.88
2023-08-05T20:02:36.277Z,161393.44
2023-08-05T20:05:05.845Z,161402.84
2023-08-05T20:07:34.605Z,161400.13
2023-08-05T20:10:02.341Z,161397.47
2023-08-05T20:12:30.102Z,161400.13
2023-08-05T20:14:58.008Z,161416.28
2023-08-05T20:17:25.890Z,161416.28
2023-08-05T20:19:55.070Z,161417.59
2023-08-05T20:22:22.296Z,161402.84
2023-08-05T20:25:00.447Z,161401.50
2023-08-05T20:27:29.176Z,161397.47
2023-08-05T20:29:57.518Z,161397.47
2023-08-05T20:32:24.933Z,161402.84
2023-08-05T20:34:56.473Z,161404.19
2023-08-05T20:37:24.544Z,161402.84
2023-08-05T20:39:55.444Z,161400.13
2023-08-05T20:42:25.763Z,161400.13
2023-08-05T20:44:53.438Z,161420.25
2023-08-05T20:47:21.116Z,161413.56
2023-08-05T20:49:49.495Z,161410.88
2023-08-05T20:52:16.874Z,161422.97
2023-08-05T20:54:44.416Z,161429.69
2023-08-05T20:57:11.724Z,161426.97
2023-08-05T20:59:39.542Z,161439.06
2023-08-05T21:02:07.102Z,161433.69
2023-08-05T21:04:35.450Z,161424.31
2023-08-05T21:07:02.843Z,161444.44
2023-08-05T21:09:30.618Z,161435.00
2023-08-05T21:11:57.832Z,161445.78
2023-08-05T21:14:25.581Z,161449.78
2023-08-05T21:16:53.854Z,161445.78
2023-08-05T21:19:21.587Z,161433.69
2023-08-05T21:21:49.302Z,161437.72
2023-08-05T21:24:17.108Z,161440.41
2023-08-05T21:26:44.355Z,161437.72
2023-08-05T21:29:12.020Z,161435.00
2023-08-05T21:31:39.304Z,161431.03
2023-08-05T21:34:08.168Z,161437.72
2023-08-05T21:36:35.492Z,161429.69
2023-08-05T21:39:04.203Z,161429.69
2023-08-05T21:41:31.656Z,161439.06
2023-08-05T21:43:59.231Z,161432.34
2023-08-05T21:46:26.382Z,161432.34
2023-08-05T21:48:54.096Z,161431.03
2023-08-05T21:51:21.414Z,161426.97
2023-08-05T21:53:49.132Z,161432.34
2023-08-05T21:56:16.498Z,161433.69
2023-08-05T21:58:44.104Z,161412.22
2023-08-05T22:01:11.529Z,161417.59
2023-08-05T22:03:39.463Z,161418.94
2023-08-05T22:06:11.221Z,161421.59
2023-08-05T22:08:40.344Z,161408.19
2023-08-05T22:11:09.737Z,161425.66
2023-08-05T22:13:37.960Z,161402.84
2023-08-05T22:16:05.473Z,161413.56
2023-08-05T22:18:33.324Z,161421.59
2023-08-05T22:21:00.640Z,161416.28
2023-08-05T22:23:28.341Z,161417.59
2023-08-05T22:25:55.651Z,161431.03
2023-08-05T22:28:23.368Z,161429.69
2023-08-05T22:30:58.131Z,161435.00
2023-08-05T22:33:25.839Z,161432.34
2023-08-05T22:35:53.141Z,161453.81
2023-08-05T22:38:20.880Z,161468.56
2023-08-05T22:40:48.171Z,161471.22
2023-08-05T22:43:15.787Z,161482.00
2023-08-05T22:45:43.138Z,161486.00
2023-08-05T22:48:10.941Z,161475.28
2023-08-05T22:50:41.426Z,161461.84
2023-08-05T22:53:09.167Z,161447.09
2023-08-05T22:55:37.329Z,161440.41
2023-08-05T22:58:05.121Z,161445.78
2023-08-05T23:00:32.610Z,161418.94
2023-08-05T23:03:00.581Z,161422.97
2023-08-05T23:05:29.191Z,161405.50
2023-08-05T23:07:56.900Z,161404.19
2023-08-05T23:10:24.394Z,161394.81
2023-08-05T23:12:52.021Z,161390.75
2023-08-05T23:15:19.361Z,161404.19
2023-08-05T23:17:47.045Z,161402.84
2023-08-05T23:20:14.412Z,161378.66
2023-08-05T23:22:43.996Z,161385.38
2023-08-05T23:25:11.464Z,161370.63
2023-08-05T23:27:38.972Z,161363.94
2023-08-05T23:30:07.010Z,161362.59
2023-08-05T23:32:34.783Z,161338.47
2023-08-05T23:35:02.140Z,161343.78
2023-08-05T23:37:30.138Z,161353.22
2023-08-05T23:39:57.513Z,161363.94
2023-08-05T23:42:25.145Z,161358.56
2023-08-05T23:44:52.558Z,161350.50
2023-08-05T23:47:20.241Z,161366.63
2023-08-05T23:49:47.596Z,161354.56
2023-08-05T23:52:15.221Z,161363.94
2023-08-05T23:54:42.625Z,161384.06
2023-08-05T23:57:10.298Z,161397.47
2023-08-05T23:59:37.818Z,161392.09
